createdAt,value
2018-05-03T00:02:13.391Z,72.50
2018-05-03T00:04:40.939Z,72.60
2018-05-03T00:07:09.214Z,72.90
2018-05-03T00:09:37.518Z,73.10
2018-05-03T00:12:05.034Z,73.00
2018-05-03T00:14:32.587Z,73.50
2018-05-03T00:17:00.164Z,73.40
2018-05-03T00:19:27.707Z,73.80
2018-05-03T00:21:55.229Z,73.80
2018-05-03T00:24:22.886Z,74.00
2018-05-03T00:26:50.436Z,74.00
2018-05-03T00:29:18.899Z,74.10
2018-05-03T00:31:46.417Z,74.30
2018-05-03T00:34:13.935Z,74.80
2018-05-03T00:36:42.243Z,75.10
2018-05-03T00:39:09.766Z,75.00
2018-05-03T00:41:37.302Z,75.00
2018-05-03T00:44:04.828Z,75.20
2018-05-03T00:46:33.170Z,75.10
2018-05-03T00:49:02.203Z,75.20
2018-05-03T00:51:29.749Z,75.10
2018-05-03T00:53:57.304Z,74.80
2018-05-03T00:56:24.852Z,74.90
2018-05-03T00:58:52.376Z,74.90
2018-05-03T01:01:19.922Z,75.40
2018-05-03T01:03:47.434Z,75.50
2018-05-03T01:06:14.974Z,75.10
2018-05-03T01:08:43.299Z,74.70
2018-05-03T01:11:10.856Z,74.70
2018-05-03T01:13:38.392Z,74.30
2018-05-03T01:16:05.949Z,74.00
2018-05-03T01:18:33.586Z,73.90
2018-05-03T01:21:01.119Z,74.40
2018-05-03T01:23:28.640Z,73.90
2018-05-03T01:25:56.192Z,73.90
2018-05-03T01:28:23.736Z,73.80
2018-05-03T01:30:51.279Z,73.80
2018-05-03T01:33:18.838Z,74.10
2018-05-03T01:35:58.448Z,74.20
2018-05-03T01:38:25.961Z,74.30
2018-05-03T01:40:54.268Z,74.40
2018-05-03T01:43:21.791Z,74.40
2018-05-03T01:45:49.334Z,74.40
2018-05-03T01:48:16.856Z,74.40
2018-05-03T01:50:45.159Z,74.30
2018-05-03T01:53:12.679Z,74.30
2018-05-03T01:55:40.236Z,74.10
2018-05-03T01:58:07.745Z,74.30
2018-05-03T02:00:36.084Z,74.10
2018-05-03T02:03:03.648Z,74.00
2018-05-03T02:05:31.939Z,73.90
2018-05-03T02:07:59.476Z,73.80
2018-05-03T02:10:27.158Z,74.00
2018-05-03T02:12:54.701Z,74.10
2018-05-03T02:15:22.217Z,74.30
2018-05-03T02:17:49.787Z,74.30
2018-05-03T02:20:17.320Z,74.20
2018-05-03T02:22:44.871Z,74.20
2018-05-03T02:25:12.382Z,74.10
2018-05-03T02:27:40.682Z,74.20
2018-05-03T02:30:08.200Z,74.20
2018-05-03T02:32:35.756Z,74.20
2018-05-03T02:35:03.271Z,74.20
2018-05-03T02:37:31.583Z,74.70
2018-05-03T02:39:59.121Z,74.60
2018-05-03T02:42:27.217Z,74.70
2018-05-03T02:44:54.734Z,74.80
2018-05-03T02:47:22.271Z,74.70
2018-05-03T02:49:49.783Z,74.20
2018-05-03T02:52:17.337Z,74.50
2018-05-03T02:54:44.866Z,74.30
2018-05-03T02:57:24.206Z,74.40
2018-05-03T03:00:03.643Z,74.50
2018-05-03T03:06:08.826Z,74.50
2018-05-03T03:09:07.443Z,74.60
2018-05-03T03:15:00.354Z,74.20
2018-05-03T03:17:45.714Z,74.30
2018-05-03T03:23:41.827Z,74.10
2018-05-03T03:29:37.105Z,74.30
2018-05-03T03:32:16.466Z,74.30
2018-05-03T03:34:43.985Z,74.50
2018-05-03T03:37:32.210Z,74.60
2018-05-03T03:40:17.449Z,75.00
2018-05-03T03:45:44.617Z,75.50
2018-05-03T03:48:12.183Z,75.90
2018-05-03T03:50:39.720Z,76.60
2018-05-03T03:53:07.313Z,76.70
2018-05-03T03:55:35.621Z,77.00
2018-05-03T03:58:03.182Z,76.90
2018-05-03T04:00:30.731Z,77.10
2018-05-03T04:02:58.280Z,77.50
2018-05-03T04:05:25.803Z,77.00
2018-05-03T04:07:53.346Z,77.10
2018-05-03T04:10:20.866Z,77.10
2018-05-03T04:12:48.422Z,76.80
2018-05-03T04:15:15.946Z,76.10
2018-05-03T04:17:55.503Z,75.90
2018-05-03T04:20:39.777Z,75.70
2018-05-03T04:23:20.050Z,75.80
2018-05-03T04:25:57.415Z,75.80
2018-05-03T04:28:24.958Z,75.80
2018-05-03T04:30:52.557Z,75.90
2018-05-03T04:33:20.115Z,76.10
2018-05-03T04:35:47.630Z,76.10
2018-05-03T04:38:15.144Z,76.20
2018-05-03T04:40:42.708Z,76.20
2018-05-03T04:43:10.238Z,76.00
2018-05-03T04:45:37.787Z,75.80
2018-05-03T04:48:05.343Z,75.60
2018-05-03T04:50:32.881Z,75.60
2018-05-03T04:53:00.407Z,74.90
2018-05-03T04:55:27.949Z,75.00
2018-05-03T04:57:55.488Z,74.80
2018-05-03T05:00:24.208Z,74.80
2018-05-03T05:02:51.821Z,74.80
2018-05-03T05:05:19.379Z,74.60
2018-05-03T05:07:46.890Z,74.10
2018-05-03T05:10:15.211Z,73.90
2018-05-03T05:12:42.739Z,73.90
2018-05-03T05:15:10.283Z,72.60
2018-05-03T05:17:37.850Z,71.80
2018-05-03T05:20:05.398Z,71.70
2018-05-03T05:22:32.926Z,71.80
2018-05-03T05:25:00.466Z,72.20
2018-05-03T05:27:28.003Z,71.50
2018-05-03T05:29:55.547Z,71.60
2018-05-03T05:32:23.073Z,71.40
2018-05-03T05:34:50.769Z,71.30
2018-05-03T05:37:19.071Z,70.60
2018-05-03T05:39:46.610Z,70.50
2018-05-03T05:42:14.890Z,71.00
2018-05-03T05:44:42.443Z,71.00
2018-05-03T05:47:09.970Z,70.90
2018-05-03T05:49:37.542Z,71.10
2018-05-03T05:52:05.065Z,71.30
2018-05-03T05:54:32.610Z,71.30
2018-05-03T05:57:00.137Z,71.60
2018-05-03T05:59:28.454Z,69.50
2018-05-03T06:01:55.988Z,69.50
2018-05-03T06:04:23.531Z,69.40
2018-05-03T06:06:51.076Z,69.30
2018-05-03T06:09:18.599Z,69.00
2018-05-03T06:11:46.157Z,69.10
2018-05-03T06:14:13.713Z,68.70
2018-05-03T06:16:41.268Z,68.70
2018-05-03T06:19:08.895Z,68.90
2018-05-03T06:21:36.437Z,68.90
2018-05-03T06:24:03.952Z,68.90
2018-05-03T06:26:31.626Z,69.10
2018-05-03T06:28:59.143Z,68.70
2018-05-03T06:31:27.914Z,68.40
2018-05-03T06:33:55.456Z,68.20
2018-05-03T06:36:23.048Z,68.00
2018-05-03T06:38:50.574Z,67.50
2018-05-03T06:41:18.120Z,67.00
2018-05-03T06:43:45.644Z,66.70
2018-05-03T06:46:13.946Z,65.50
2018-05-03T06:48:41.464Z,65.50
2018-05-03T06:51:09.032Z,65.30
2018-05-03T06:53:36.551Z,65.10
2018-05-03T06:56:04.123Z,65.10
2018-05-03T06:58:31.683Z,65.00
2018-05-03T07:00:59.196Z,65.30
2018-05-03T07:03:26.733Z,65.80
2018-05-03T07:05:54.489Z,66.20
2018-05-03T07:08:22.822Z,66.40
2018-05-03T07:10:50.688Z,66.00
2018-05-03T07:13:18.427Z,66.20
2018-05-03T07:15:46.001Z,66.30
2018-05-03T07:18:13.523Z,66.50
2018-05-03T07:20:41.115Z,66.50
2018-05-03T07:23:08.730Z,66.30
2018-05-03T07:25:36.270Z,66.00
2018-05-03T07:28:03.811Z,65.60
2018-05-03T07:30:31.472Z,64.90
2018-05-03T07:32:58.995Z,64.80
2018-05-03T07:35:26.542Z,65.00
2018-05-03T07:37:54.076Z,65.40
2018-05-03T07:40:21.618Z,65.30
2018-05-03T07:42:49.190Z,65.20
2018-05-03T07:45:16.737Z,65.20
2018-05-03T07:47:44.422Z,64.70
2018-05-03T07:50:12.746Z,64.40
2018-05-03T07:52:40.388Z,64.40
2018-05-03T07:55:07.902Z,63.20
2018-05-03T07:57:35.441Z,63.50
2018-05-03T08:00:02.963Z,63.10
2018-05-03T08:02:30.513Z,63.20
2018-05-03T08:04:59.167Z,63.70
2018-05-03T08:07:26.812Z,63.60
2018-05-03T08:09:54.344Z,63.70
2018-05-03T08:12:21.892Z,63.10
2018-05-03T08:14:49.680Z,62.20
2018-05-03T08:17:17.992Z,61.90
2018-05-03T08:19:45.563Z,61.80
2018-05-03T08:22:13.102Z,61.00
2018-05-03T08:24:41.387Z,62.00
2018-05-03T08:27:09.710Z,62.40
2018-05-03T08:29:37.233Z,62.40
2018-05-03T08:32:04.830Z,61.80
2018-05-03T08:34:33.110Z,62.90
2018-05-03T08:37:01.422Z,63.10
2018-05-03T08:39:28.943Z,63.70
2018-05-03T08:41:56.479Z,63.10
2018-05-03T08:44:23.995Z,62.60
2018-05-03T08:46:52.346Z,61.20
2018-05-03T08:49:19.870Z,61.10
2018-05-03T08:51:47.426Z,61.60
2018-05-03T08:54:15.711Z,60.90
2018-05-03T08:56:44.082Z,60.40
2018-05-03T08:59:11.611Z,60.40
2018-05-03T09:01:39.987Z,60.10
2018-05-03T09:04:07.469Z,60.00
2018-05-03T09:06:35.115Z,59.70
2018-05-03T09:09:02.659Z,59.20
2018-05-03T09:11:30.203Z,59.20
2018-05-03T09:13:57.738Z,58.90
2018-05-03T09:16:25.277Z,58.90
2018-05-03T09:18:52.811Z,58.90
2018-05-03T09:21:20.362Z,58.10
2018-05-03T09:23:47.988Z,57.60
2018-05-03T09:26:16.294Z,58.20
2018-05-03T09:28:44.019Z,58.10
2018-05-03T09:31:11.572Z,58.20
2018-05-03T09:33:39.151Z,57.10
2018-05-03T09:36:07.431Z,58.30
2018-05-03T09:38:35.753Z,58.50
2018-05-03T09:41:03.439Z,58.50
2018-05-03T09:43:30.994Z,58.30
2018-05-03T09:45:59.269Z,58.20
2018-05-03T09:48:26.818Z,58.70
2018-05-03T09:50:54.362Z,58.00
2018-05-03T09:53:21.946Z,57.70
2018-05-03T09:55:49.485Z,58.10
2018-05-03T09:58:17.026Z,57.70
2018-05-03T10:00:44.562Z,56.80
2018-05-03T10:03:12.110Z,56.70
2018-05-03T10:05:40.071Z,56.30
2018-05-03T10:08:07.652Z,56.70
2018-05-03T10:10:35.191Z,56.70
2018-05-03T10:13:02.734Z,55.80
2018-05-03T10:15:30.246Z,56.10
2018-05-03T10:17:57.788Z,55.90
2018-05-03T10:20:25.338Z,54.70
2018-05-03T10:22:52.898Z,54.80
2018-05-03T10:25:21.135Z,53.70
2018-05-03T10:27:48.683Z,53.70
2018-05-03T10:30:16.371Z,52.70
2018-05-03T10:32:43.914Z,49.10
2018-05-03T10:35:11.554Z,47.30
2018-05-03T10:37:39.966Z,46.90
2018-05-03T10:40:07.490Z,46.90
2018-05-03T10:42:35.798Z,48.30
2018-05-03T10:45:03.324Z,48.30
2018-05-03T10:47:30.869Z,48.90
2018-05-03T10:49:58.393Z,48.40
2018-05-03T10:52:26.143Z,48.00
2018-05-03T10:54:53.670Z,48.70
2018-05-03T10:57:21.982Z,48.10
2018-05-03T10:59:49.542Z,48.10
2018-05-03T11:02:17.091Z,49.00
2018-05-03T11:04:44.612Z,46.60
2018-05-03T11:07:12.146Z,46.70
2018-05-03T11:09:39.704Z,46.60
2018-05-03T11:12:07.269Z,48.30
2018-05-03T11:14:35.711Z,51.20
2018-05-03T11:17:03.256Z,51.20
2018-05-03T11:19:30.798Z,51.20
2018-05-03T11:21:58.348Z,50.80
2018-05-03T11:24:25.904Z,50.80
2018-05-03T11:26:53.540Z,50.80
2018-05-03T11:29:21.096Z,49.80
2018-05-03T11:31:48.614Z,48.60
2018-05-03T11:34:16.181Z,47.80
2018-05-03T11:36:43.761Z,47.20
2018-05-03T11:39:11.329Z,46.90
2018-05-03T11:41:38.856Z,46.00
2018-05-03T11:44:07.220Z,46.40
2018-05-03T11:46:36.061Z,45.20
2018-05-03T11:49:03.616Z,45.10
2018-05-03T11:51:31.179Z,44.90
2018-05-03T11:53:59.604Z,45.30
2018-05-03T11:56:27.123Z,45.30
2018-05-03T11:58:54.713Z,45.10
2018-05-03T12:01:22.333Z,45.50
2018-05-03T12:03:50.082Z,45.40
2018-05-03T12:06:17.653Z,44.90
2018-05-03T12:08:45.197Z,44.50
2018-05-03T12:11:12.715Z,45.50
2018-05-03T12:13:40.334Z,46.40
2018-05-03T12:16:08.810Z,46.50
2018-05-03T12:18:36.384Z,46.10
2018-05-03T12:21:03.948Z,45.70
2018-05-03T12:23:31.490Z,46.00
2018-05-03T12:25:59.030Z,46.80
2018-05-03T12:28:27.373Z,46.90
2018-05-03T12:30:54.910Z,46.90
2018-05-03T12:33:22.465Z,46.30
2018-05-03T12:35:50.205Z,46.50
2018-05-03T12:38:17.851Z,47.20
2018-05-03T12:40:45.425Z,47.40
2018-05-03T12:43:12.954Z,46.30
2018-05-03T12:45:40.512Z,46.10
2018-05-03T12:48:08.031Z,46.60
2018-05-03T12:50:36.558Z,46.10
2018-05-03T12:53:04.334Z,46.60
2018-05-03T12:55:31.890Z,47.20
2018-05-03T12:57:59.404Z,47.60
2018-05-03T13:00:26.943Z,48.20
2018-05-03T13:02:55.323Z,48.20
2018-05-03T13:05:22.857Z,48.30
2018-05-03T13:07:50.385Z,49.30
2018-05-03T13:10:18.698Z,49.50
2018-05-03T13:12:46.241Z,49.50
2018-05-03T13:15:13.790Z,48.70
2018-05-03T13:17:41.353Z,48.20
2018-05-03T13:20:09.067Z,48.60
2018-05-03T13:22:37.463Z,48.90
2018-05-03T13:25:05.057Z,49.30
2018-05-03T13:27:32.591Z,49.90
2018-05-03T13:30:00.159Z,50.40
2018-05-03T13:32:27.677Z,50.20
2018-05-03T13:34:56.346Z,48.60
2018-05-03T13:37:24.689Z,48.10
2018-05-03T13:39:52.294Z,48.10
2018-05-03T13:42:19.832Z,48.90
2018-05-03T13:44:47.462Z,49.20
2018-05-03T13:47:15.060Z,49.10
2018-05-03T13:49:43.168Z,48.80
2018-05-03T13:52:16.418Z,48.50
2018-05-03T13:54:44.731Z,47.40
2018-05-03T13:57:12.266Z,47.40
2018-05-03T13:59:39.884Z,45.90
2018-05-03T14:02:07.445Z,45.90
2018-05-03T14:04:35.009Z,45.50
2018-05-03T14:07:02.587Z,44.90
2018-05-03T14:09:30.119Z,45.10
2018-05-03T14:11:57.749Z,45.30
2018-05-03T14:14:25.304Z,45.70
2018-05-03T14:16:52.864Z,46.00
2018-05-03T14:19:20.502Z,46.20
2018-05-03T14:21:47.979Z,45.60
2018-05-03T14:24:16.264Z,46.10
2018-05-03T14:26:43.831Z,46.10
2018-05-03T14:29:11.913Z,46.50
2018-05-03T14:31:39.538Z,47.10
2018-05-03T14:34:07.080Z,47.10
2018-05-03T14:36:34.628Z,47.70
2018-05-03T14:39:02.166Z,47.40
2018-05-03T14:41:29.712Z,47.40
2018-05-03T14:43:57.249Z,47.90
2018-05-03T14:46:24.831Z,47.80
2018-05-03T14:48:52.378Z,47.50
2018-05-03T14:51:19.920Z,47.50
2018-05-03T14:53:47.453Z,46.70
2018-05-03T14:56:14.986Z,47.00
2018-05-03T14:58:42.502Z,46.10
2018-05-03T15:01:10.144Z,46.10
2018-05-03T15:03:37.668Z,46.00
2018-05-03T15:06:06.023Z,47.60
2018-05-03T15:08:34.445Z,48.10
2018-05-03T15:11:02.774Z,48.90
2018-05-03T15:13:30.295Z,48.80
2018-05-03T15:15:58.638Z,50.20
2018-05-03T15:18:26.198Z,50.10
2018-05-03T15:20:53.734Z,50.30
2018-05-03T15:23:21.247Z,50.30
2018-05-03T15:25:48.801Z,50.50
2018-05-03T15:28:16.344Z,50.40
2018-05-03T15:30:43.894Z,50.70
2018-05-03T15:33:11.582Z,50.50
2018-05-03T15:35:39.169Z,50.20
2018-05-03T15:38:06.690Z,49.40
2018-05-03T15:40:34.255Z,48.10
2018-05-03T15:43:01.819Z,46.40
2018-05-03T15:45:29.347Z,46.00
2018-05-03T15:47:57.000Z,45.70
2018-05-03T15:50:24.532Z,44.90
2018-05-03T15:52:52.096Z,43.20
2018-05-03T15:55:19.673Z,42.40
2018-05-03T15:57:47.992Z,41.80
2018-05-03T16:00:15.519Z,41.70
2018-05-03T16:02:43.063Z,39.80
2018-05-03T16:05:10.594Z,38.30
2018-05-03T16:07:38.225Z,36.20
2018-05-03T16:10:05.764Z,37.30
2018-05-03T16:12:34.072Z,38.00
2018-05-03T16:15:01.602Z,38.00
2018-05-03T16:17:29.174Z,36.90
2018-05-03T16:19:56.697Z,36.40
2018-05-03T16:22:24.432Z,34.30
2018-05-03T16:24:51.948Z,33.40
2018-05-03T16:27:20.250Z,33.50
2018-05-03T16:29:47.758Z,33.50
2018-05-03T16:32:15.301Z,32.20
2018-05-03T16:34:43.648Z,30.60
2018-05-03T16:37:11.345Z,30.50
2018-05-03T16:39:40.452Z,31.20
2018-05-03T16:42:08.009Z,31.20
2018-05-03T16:44:35.525Z,31.60
2018-05-03T16:47:03.110Z,32.30
2018-05-03T16:49:30.626Z,31.40
2018-05-03T16:51:58.166Z,29.70
2018-05-03T16:54:25.691Z,29.90
2018-05-03T16:56:53.244Z,30.00
2018-05-03T16:59:20.802Z,29.90
2018-05-03T17:01:48.322Z,29.10
2018-05-03T17:04:15.833Z,28.50
2018-05-03T17:06:44.137Z,28.00
2018-05-03T17:09:11.914Z,28.00
2018-05-03T17:11:39.482Z,27.60
2018-05-03T17:14:09.025Z,27.30
2018-05-03T17:16:36.494Z,26.60
2018-05-03T17:19:04.062Z,26.70
2018-05-03T17:21:31.660Z,26.30
2018-05-03T17:23:59.204Z,25.90
2018-05-03T17:26:26.802Z,26.00
2018-05-03T17:28:55.109Z,26.30
2018-05-03T17:31:22.629Z,26.30
2018-05-03T17:33:50.210Z,26.20
2018-05-03T17:36:17.768Z,26.00
2018-05-03T17:38:45.308Z,25.70
2018-05-03T17:41:12.839Z,25.70
2018-05-03T17:43:40.394Z,26.00
2018-05-03T17:46:08.033Z,25.90
2018-05-03T17:48:35.597Z,26.20
2018-05-03T17:51:03.121Z,26.50
2018-05-03T17:53:30.682Z,27.10
2018-05-03T17:55:58.212Z,27.60
2018-05-03T17:58:25.770Z,28.20
2018-05-03T18:00:53.282Z,28.50
2018-05-03T18:03:20.818Z,28.40
2018-05-03T18:05:48.339Z,28.50
2018-05-03T18:08:16.646Z,29.00
2018-05-03T18:10:44.240Z,29.50
2018-05-03T18:13:11.840Z,29.50
2018-05-03T18:15:39.362Z,30.50
2018-05-03T18:18:06.907Z,31.10
2018-05-03T18:20:34.437Z,32.00
2018-05-03T18:23:02.028Z,32.70
2018-05-03T18:25:29.698Z,33.60
2018-05-03T18:27:57.257Z,34.00
2018-05-03T18:30:24.814Z,34.40
2018-05-03T18:32:53.187Z,34.80
2018-05-03T18:35:20.787Z,34.80
2018-05-03T18:37:48.306Z,34.90
2018-05-03T18:40:15.952Z,35.00
2018-05-03T18:42:43.478Z,35.50
2018-05-03T18:45:11.031Z,35.90
2018-05-03T18:47:38.805Z,36.20
2018-05-03T18:50:06.359Z,36.50
2018-05-03T18:52:33.875Z,36.40
2018-05-03T18:55:01.530Z,36.40
2018-05-03T18:57:29.042Z,36.60
2018-05-03T18:59:56.616Z,36.40
2018-05-03T19:02:24.161Z,36.80
2018-05-03T19:04:51.982Z,37.10
2018-05-03T19:07:19.511Z,37.30
2018-05-03T19:09:47.819Z,37.90
2018-05-03T19:12:15.366Z,37.80
2018-05-03T19:14:42.948Z,37.80
2018-05-03T19:17:10.495Z,38.00
2018-05-03T19:19:38.802Z,38.60
2018-05-03T19:22:06.317Z,38.50
2018-05-03T19:24:33.907Z,38.80
2018-05-03T19:27:02.195Z,38.90
2018-05-03T19:29:29.842Z,39.20
2018-05-03T19:31:57.372Z,39.60
2018-05-03T19:34:24.922Z,39.70
2018-05-03T19:36:52.518Z,40.10
2018-05-03T19:39:20.064Z,40.40
2018-05-03T19:41:47.636Z,40.50
2018-05-03T19:44:15.192Z,40.60
2018-05-03T19:46:42.828Z,40.80
2018-05-03T19:49:10.380Z,41.20
2018-05-03T19:51:38.015Z,41.50
2018-05-03T19:54:05.534Z,41.90
2018-05-03T19:56:33.178Z,42.20
2018-05-03T19:59:00.744Z,42.50
2018-05-03T20:01:28.297Z,42.70
2018-05-03T20:03:55.872Z,43.00
2018-05-03T20:06:23.451Z,43.20
2018-05-03T20:08:50.971Z,43.10
2018-05-03T20:11:18.646Z,43.50
2018-05-03T20:13:47.118Z,43.80
2018-05-03T20:16:15.576Z,44.10
2018-05-03T20:18:43.181Z,44.20
2018-05-03T20:21:10.744Z,44.50
2018-05-03T20:23:39.035Z,44.50
2018-05-03T20:26:06.603Z,44.40
2018-05-03T20:28:34.199Z,44.90
2018-05-03T20:31:02.513Z,45.10
2018-05-03T20:33:30.671Z,45.10
2018-05-03T20:35:58.229Z,45.30
2018-05-03T20:38:25.775Z,45.60
2018-05-03T20:40:53.322Z,45.70
2018-05-03T20:43:20.855Z,46.00
2018-05-03T20:45:48.517Z,46.30
2018-05-03T20:48:16.041Z,46.70
2018-05-03T20:50:43.601Z,47.10
2018-05-03T20:53:11.121Z,47.10
2018-05-03T20:55:39.236Z,47.10
2018-05-03T20:58:07.203Z,47.40
2018-05-03T21:00:34.747Z,47.50
2018-05-03T21:03:02.270Z,47.70
2018-05-03T21:05:29.864Z,47.90
2018-05-03T21:07:57.382Z,48.20
2018-05-03T21:10:24.970Z,48.30
2018-05-03T21:12:52.524Z,48.40
2018-05-03T21:15:20.034Z,48.70
2018-05-03T21:17:49.338Z,49.20
2018-05-03T21:20:16.859Z,49.20
2018-05-03T21:22:44.423Z,49.20
2018-05-03T21:25:11.979Z,49.40
2018-05-03T21:27:39.532Z,49.30
2018-05-03T21:30:07.050Z,49.30
2018-05-03T21:32:34.587Z,49.60
2018-05-03T21:35:02.113Z,49.80
2018-05-03T21:37:29.689Z,50.10
2018-05-03T21:39:57.203Z,50.00
2018-05-03T21:42:24.745Z,50.20
2018-05-03T21:44:52.318Z,50.50
2018-05-03T21:47:19.854Z,50.70
2018-05-03T21:49:48.294Z,51.00
2018-05-03T21:52:16.613Z,51.60
2018-05-03T21:54:44.152Z,51.60
2018-05-03T21:57:11.698Z,51.00
2018-05-03T21:59:39.224Z,51.80
2018-05-03T22:02:06.766Z,51.80
2018-05-03T22:04:34.278Z,52.30
2018-05-03T22:07:01.822Z,52.70
2018-05-03T22:09:30.101Z,52.60
2018-05-03T22:11:57.701Z,52.60
2018-05-03T22:14:26.003Z,53.30
2018-05-03T22:16:53.534Z,53.30
2018-05-03T22:19:21.825Z,53.60
2018-05-03T22:21:49.428Z,53.60
2018-05-03T22:24:17.715Z,54.30
2018-05-03T22:26:45.256Z,54.20
2018-05-03T22:29:12.790Z,54.40
2018-05-03T22:31:41.082Z,54.40
2018-05-03T22:34:08.621Z,54.40
2018-05-03T22:36:36.146Z,54.60
2018-05-03T22:39:03.687Z,54.60
2018-05-03T22:41:31.963Z,54.90
2018-05-03T22:43:59.506Z,54.90
2018-05-03T22:46:27.022Z,55.00
2018-05-03T22:48:55.352Z,55.30
2018-05-03T22:51:22.902Z,55.30
2018-05-03T22:53:50.479Z,55.60
2018-05-03T22:56:18.772Z,56.90
2018-05-03T22:58:46.310Z,56.90
2018-05-03T23:01:13.985Z,57.20
2018-05-03T23:03:41.527Z,57.60
2018-05-03T23:06:09.043Z,57.60
2018-05-03T23:08:36.580Z,57.60
2018-05-03T23:11:04.091Z,57.90
2018-05-03T23:13:31.639Z,58.10
2018-05-03T23:15:59.165Z,58.30
2018-05-03T23:18:28.329Z,58.70
2018-05-03T23:20:55.847Z,58.70
2018-05-03T23:23:23.393Z,59.00
2018-05-03T23:25:51.839Z,60.10
2018-05-03T23:28:19.530Z,60.10
2018-05-03T23:30:47.199Z,60.10
2018-05-03T23:33:14.751Z,60.40
2018-05-03T23:35:42.272Z,60.50
2018-05-03T23:38:09.828Z,60.80
2018-05-03T23:40:37.347Z,61.40
2018-05-03T23:43:04.890Z,61.50
2018-05-03T23:45:32.414Z,61.90
2018-05-03T23:47:59.952Z,61.70
2018-05-03T23:50:27.868Z,61.90
2018-05-03T23:52:55.427Z,61.50
2018-05-03T23:55:23.757Z,61.40
2018-05-03T23:57:52.193Z,61.40
